sensor_id;sensor_type;location;lat;lon;timestamp;pressure;altitude;pressure_sealevel;temperature;humidity
73016;BME280;61893;50.074;14.440;2022-08-23T00:02:08;98458.63;;;14.36;91.91
73016;BME280;61893;50.074;14.440;2022-08-23T00:04:41;98452.94;;;14.39;92.33
73016;BME280;61893;50.074;14.440;2022-08-23T00:07:12;98456.19;;;14.50;91.96
73016;BME280;61893;50.074;14.440;2022-08-23T00:09:39;98449.53;;;14.46;92.26
73016;BME280;61893;50.074;14.440;2022-08-23T00:12:11;98447.47;;;14.56;92.19
73016;BME280;61893;50.074;14.440;2022-08-23T00:14:39;98451.72;;;14.42;92.17
73016;BME280;61893;50.074;14.440;2022-08-23T00:17:07;98453.94;;;14.38;92.24
73016;BME280;61893;50.074;14.440;2022-08-23T00:19:33;98446.56;;;14.40;92.53
73016;BME280;61893;50.074;14.440;2022-08-23T00:21:59;98445.44;;;14.35;92.58
73016;BME280;61893;50.074;14.440;2022-08-23T00:24:26;98452.63;;;14.34;92.40
73016;BME280;61893;50.074;14.440;2022-08-23T00:29:39;98439.72;;;14.38;92.74
73016;BME280;61893;50.074;14.440;2022-08-23T00:32:07;98435.59;;;14.50;92.74
73016;BME280;61893;50.074;14.440;2022-08-23T00:34:48;98437.44;;;14.50;92.48
73016;BME280;61893;50.074;14.440;2022-08-23T00:37:18;98440.75;;;14.37;92.68
73016;BME280;61893;50.074;14.440;2022-08-23T00:39:44;98443.06;;;14.40;92.72
73016;BME280;61893;50.074;14.440;2022-08-23T00:42:15;98434.06;;;14.33;93.11
73016;BME280;61893;50.074;14.440;2022-08-23T00:45:07;98440.38;;;14.40;92.50
73016;BME280;61893;50.074;14.440;2022-08-23T00:47:52;98431.34;;;14.41;92.51
73016;BME280;61893;50.074;14.440;2022-08-23T00:50:59;98427.53;;;14.35;92.65
73016;BME280;61893;50.074;14.440;2022-08-23T00:53:31;98427.09;;;14.47;92.73
73016;BME280;61893;50.074;14.440;2022-08-23T00:56:02;98430.31;;;14.42;92.48
73016;BME280;61893;50.074;14.440;2022-08-23T00:58:29;98427.94;;;14.47;92.85
73016;BME280;61893;50.074;14.440;2022-08-23T01:00:57;98421.09;;;14.45;92.68
73016;BME280;61893;50.074;14.440;2022-08-23T01:03:30;98428.13;;;14.46;92.30
73016;BME280;61893;50.074;14.440;2022-08-23T01:06:08;98422.78;;;14.46;91.90
73016;BME280;61893;50.074;14.440;2022-08-23T01:08:37;98430.81;;;14.46;92.18
73016;BME280;61893;50.074;14.440;2022-08-23T01:11:31;98435.34;;;14.45;92.12
73016;BME280;61893;50.074;14.440;2022-08-23T01:14:14;98421.75;;;14.47;92.09
73016;BME280;61893;50.074;14.440;2022-08-23T01:16:55;98419.78;;;14.40;92.16
73016;BME280;61893;50.074;14.440;2022-08-23T01:19:33;98424.41;;;14.55;92.23
73016;BME280;61893;50.074;14.440;2022-08-23T01:24:29;98424.06;;;14.50;91.79
73016;BME280;61893;50.074;14.440;2022-08-23T01:26:56;98412.03;;;14.54;91.95
73016;BME280;61893;50.074;14.440;2022-08-23T01:29:21;98413.31;;;14.58;91.82
73016;BME280;61893;50.074;14.440;2022-08-23T01:31:48;98418.22;;;14.54;91.20
73016;BME280;61893;50.074;14.440;2022-08-23T01:34:14;98417.72;;;14.51;91.29
73016;BME280;61893;50.074;14.440;2022-08-23T01:36:44;98422.84;;;14.60;91.33
73016;BME280;61893;50.074;14.440;2022-08-23T01:39:24;98422.47;;;14.63;91.08
73016;BME280;61893;50.074;14.440;2022-08-23T01:41:49;98415.94;;;14.66;91.05
73016;BME280;61893;50.074;14.440;2022-08-23T01:44:16;98417.59;;;14.67;90.76
73016;BME280;61893;50.074;14.440;2022-08-23T01:46:44;98418.25;;;14.69;91.01
73016;BME280;61893;50.074;14.440;2022-08-23T01:49:09;98420.19;;;14.75;90.67
73016;BME280;61893;50.074;14.440;2022-08-23T01:51:50;98419.16;;;14.76;90.47
73016;BME280;61893;50.074;14.440;2022-08-23T01:54:16;98419.53;;;14.73;89.77
73016;BME280;61893;50.074;14.440;2022-08-23T01:57:04;98428.50;;;14.66;90.56
73016;BME280;61893;50.074;14.440;2022-08-23T01:59:30;98422.13;;;14.67;90.51
73016;BME280;61893;50.074;14.440;2022-08-23T02:02:16;98420.47;;;14.66;90.49
73016;BME280;61893;50.074;14.440;2022-08-23T02:04:42;98422.56;;;14.70;89.95
73016;BME280;61893;50.074;14.440;2022-08-23T02:07:07;98422.88;;;14.75;89.98
73016;BME280;61893;50.074;14.440;2022-08-23T02:09:33;98417.34;;;14.77;90.00
73016;BME280;61893;50.074;14.440;2022-08-23T02:11:59;98413.91;;;14.68;89.99
73016;BME280;61893;50.074;14.440;2022-08-23T02:14:25;98417.22;;;14.70;89.92
73016;BME280;61893;50.074;14.440;2022-08-23T02:16:53;98413.63;;;14.63;90.19
73016;BME280;61893;50.074;14.440;2022-08-23T02:19:23;98416.75;;;14.67;90.37
73016;BME280;61893;50.074;14.440;2022-08-23T02:21:52;98420.19;;;14.75;89.75
73016;BME280;61893;50.074;14.440;2022-08-23T02:24:21;98416.03;;;14.73;89.76
73016;BME280;61893;50.074;14.440;2022-08-23T02:26:50;98416.84;;;14.73;90.00
73016;BME280;61893;50.074;14.440;2022-08-23T02:29:19;98420.19;;;14.75;89.64
73016;BME280;61893;50.074;14.440;2022-08-23T02:32:03;98423.91;;;14.74;90.00
73016;BME280;61893;50.074;14.440;2022-08-23T02:34:46;98427.09;;;14.70;90.09
73016;BME280;61893;50.074;14.440;2022-08-23T02:37:44;98428.44;;;14.74;90.33
73016;BME280;61893;50.074;14.440;2022-08-23T02:40:10;98430.63;;;14.70;90.23
73016;BME280;61893;50.074;14.440;2022-08-23T02:42:45;98433.94;;;14.72;90.52
73016;BME280;61893;50.074;14.440;2022-08-23T02:45:11;98430.25;;;14.73;91.17
73016;BME280;61893;50.074;14.440;2022-08-23T02:47:38;98429.69;;;14.63;91.40
73016;BME280;61893;50.074;14.440;2022-08-23T02:50:07;98429.72;;;14.78;91.85
73016;BME280;61893;50.074;14.440;2022-08-23T02:52:36;98432.09;;;14.73;92.04
73016;BME280;61893;50.074;14.440;2022-08-23T02:55:05;98424.13;;;14.64;92.29
73016;BME280;61893;50.074;14.440;2022-08-23T02:57:32;98430.06;;;14.60;91.93
73016;BME280;61893;50.074;14.440;2022-08-23T02:59:58;98425.81;;;14.66;92.60
73016;BME280;61893;50.074;14.440;2022-08-23T03:02:30;98421.59;;;14.71;92.11
73016;BME280;61893;50.074;14.440;2022-08-23T03:04:56;98421.66;;;14.63;92.52
73016;BME280;61893;50.074;14.440;2022-08-23T03:07:22;98433.03;;;14.65;92.69
73016;BME280;61893;50.074;14.440;2022-08-23T03:09:48;98430.50;;;14.63;92.58
73016;BME280;61893;50.074;14.440;2022-08-23T03:12:14;98431.53;;;14.62;92.33
73016;BME280;61893;50.074;14.440;2022-08-23T03:14:39;98431.28;;;14.72;92.31
73016;BME280;61893;50.074;14.440;2022-08-23T03:17:11;98428.97;;;14.69;92.00
73016;BME280;61893;50.074;14.440;2022-08-23T03:19:42;98430.63;;;14.85;91.29
73016;BME280;61893;50.074;14.440;2022-08-23T03:22:10;98431.56;;;14.77;91.54
73016;BME280;61893;50.074;14.440;2022-08-23T03:24:46;98429.88;;;14.76;91.52
73016;BME280;61893;50.074;14.440;2022-08-23T03:27:33;98428.22;;;14.75;91.53
73016;BME280;61893;50.074;14.440;2022-08-23T03:29:59;98432.75;;;14.75;91.43
73016;BME280;61893;50.074;14.440;2022-08-23T03:32:24;98429.19;;;14.82;91.35
73016;BME280;61893;50.074;14.440;2022-08-23T03:34:51;98435.72;;;14.80;91.35
73016;BME280;61893;50.074;14.440;2022-08-23T03:37:29;98437.59;;;14.79;91.77
73016;BME280;61893;50.074;14.440;2022-08-23T03:39:55;98440.88;;;14.81;91.42
73016;BME280;61893;50.074;14.440;2022-08-23T03:42:23;98440.25;;;14.79;91.68
73016;BME280;61893;50.074;14.440;2022-08-23T03:44:49;98439.53;;;14.85;91.71
73016;BME280;61893;50.074;14.440;2022-08-23T03:47:16;98434.34;;;14.84;91.57
73016;BME280;61893;50.074;14.440;2022-08-23T03:49:42;98442.09;;;14.79;91.77
73016;BME280;61893;50.074;14.440;2022-08-23T03:52:08;98447.94;;;14.82;91.91
73016;BME280;61893;50.074;14.440;2022-08-23T03:54:36;98440.72;;;14.83;91.55
73016;BME280;61893;50.074;14.440;2022-08-23T03:57:05;98441.09;;;14.80;92.09
73016;BME280;61893;50.074;14.440;2022-08-23T03:59:37;98437.22;;;14.82;91.92
73016;BME280;61893;50.074;14.440;2022-08-23T04:02:03;98433.50;;;14.83;91.81
73016;BME280;61893;50.074;14.440;2022-08-23T04:04:34;98432.69;;;14.83;91.77
73016;BME280;61893;50.074;14.440;2022-08-23T04:07:02;98437.22;;;14.82;91.77
73016;BME280;61893;50.074;14.440;2022-08-23T04:09:28;98440.25;;;14.79;91.92
73016;BME280;61893;50.074;14.440;2022-08-23T04:11:57;98439.69;;;14.84;92.12
73016;BME280;61893;50.074;14.440;2022-08-23T04:14:28;98442.75;;;14.81;92.59
73016;BME280;61893;50.074;14.440;2022-08-23T04:16:54;98450.25;;;14.85;92.56
73016;BME280;61893;50.074;14.440;2022-08-23T04:19:20;98456.66;;;14.76;92.63
73016;BME280;61893;50.074;14.440;2022-08-23T04:21:49;98456.81;;;14.98;92.01
73016;BME280;61893;50.074;14.440;2022-08-23T04:24:16;98452.06;;;14.85;92.54
73016;BME280;61893;50.074;14.440;2022-08-23T04:26:43;98452.94;;;14.85;92.43
73016;BME280;61893;50.074;14.440;2022-08-23T04:29:15;98452.56;;;14.89;92.17
73016;BME280;61893;50.074;14.440;2022-08-23T04:31:43;98446.19;;;14.90;92.54
73016;BME280;61893;50.074;14.440;2022-08-23T04:34:09;98446.91;;;14.83;92.39
73016;BME280;61893;50.074;14.440;2022-08-23T04:36:52;98449.22;;;14.86;92.36
73016;BME280;61893;50.074;14.440;2022-08-23T04:39:18;98445.66;;;14.94;92.19
73016;BME280;61893;50.074;14.440;2022-08-23T04:42:20;98450.19;;;14.94;91.99
73016;BME280;61893;50.074;14.440;2022-08-23T04:44:51;98451.63;;;14.96;92.16
73016;BME280;61893;50.074;14.440;2022-08-23T04:47:17;98449.97;;;14.95;92.32
73016;BME280;61893;50.074;14.440;2022-08-23T04:49:59;98468.25;;;14.92;92.16
73016;BME280;61893;50.074;14.440;2022-08-23T04:52:54;98465.22;;;14.95;92.67
73016;BME280;61893;50.074;14.440;2022-08-23T04:55:20;98463.56;;;14.94;93.02
73016;BME280;61893;50.074;14.440;2022-08-23T04:57:49;98469.75;;;14.94;92.84
73016;BME280;61893;50.074;14.440;2022-08-23T05:00:17;98472.22;;;14.96;92.84
73016;BME280;61893;50.074;14.440;2022-08-23T05:03:17;98464.84;;;14.98;93.00
73016;BME280;61893;50.074;14.440;2022-08-23T05:05:44;98468.63;;;14.89;92.89
73016;BME280;61893;50.074;14.440;2022-08-23T05:08:13;98467.59;;;14.90;93.38
73016;BME280;61893;50.074;14.440;2022-08-23T05:10:40;98476.47;;;14.90;93.32
73016;BME280;61893;50.074;14.440;2022-08-23T05:13:05;98471.25;;;14.97;93.09
73016;BME280;61893;50.074;14.440;2022-08-23T05:15:34;98473.81;;;15.05;92.96
73016;BME280;61893;50.074;14.440;2022-08-23T05:18:05;98476.59;;;14.97;93.11
73016;BME280;61893;50.074;14.440;2022-08-23T05:20:31;98473.56;;;15.15;92.56
73016;BME280;61893;50.074;14.440;2022-08-23T05:22:59;98476.22;;;15.00;92.79
73016;BME280;61893;50.074;14.440;2022-08-23T05:25:27;98472.38;;;15.02;92.51
73016;BME280;61893;50.074;14.440;2022-08-23T05:28:20;98480.72;;;14.99;92.88
73016;BME280;61893;50.074;14.440;2022-08-23T05:33:23;98481.16;;;15.11;92.67
73016;BME280;61893;50.074;14.440;2022-08-23T05:35:48;98482.34;;;15.08;92.84
73016;BME280;61893;50.074;14.440;2022-08-23T05:38:14;98477.16;;;15.07;93.05
73016;BME280;61893;50.074;14.440;2022-08-23T05:40:41;98482.06;;;15.03;93.06
73016;BME280;61893;50.074;14.440;2022-08-23T05:43:07;98484.19;;;15.08;93.44
73016;BME280;61893;50.074;14.440;2022-08-23T05:45:33;98484.44;;;14.98;93.38
73016;BME280;61893;50.074;14.440;2022-08-23T05:47:59;98486.09;;;14.99;94.13
73016;BME280;61893;50.074;14.440;2022-08-23T05:50:24;98482.72;;;15.05;93.59
73016;BME280;61893;50.074;14.440;2022-08-23T05:52:50;98485.19;;;15.07;93.55
73016;BME280;61893;50.074;14.440;2022-08-23T05:55:16;98486.69;;;15.09;93.30
73016;BME280;61893;50.074;14.440;2022-08-23T05:57:44;98483.72;;;15.04;94.08
73016;BME280;61893;50.074;14.440;2022-08-23T06:00:10;98491.00;;;15.10;93.98
73016;BME280;61893;50.074;14.440;2022-08-23T06:02:41;98493.59;;;15.04;94.24
73016;BME280;61893;50.074;14.440;2022-08-23T06:05:08;98492.19;;;14.93;94.71
73016;BME280;61893;50.074;14.440;2022-08-23T06:07:34;98487.78;;;15.00;95.00
73016;BME280;61893;50.074;14.440;2022-08-23T06:10:19;98491.44;;;14.99;94.92
73016;BME280;61893;50.074;14.440;2022-08-23T06:12:46;98501.28;;;15.07;94.95
73016;BME280;61893;50.074;14.440;2022-08-23T06:15:13;98495.00;;;15.00;94.77
73016;BME280;61893;50.074;14.440;2022-08-23T06:17:39;98500.41;;;14.92;95.19
73016;BME280;61893;50.074;14.440;2022-08-23T06:20:05;98493.66;;;14.96;95.29
73016;BME280;61893;50.074;14.440;2022-08-23T06:22:33;98502.38;;;14.98;95.31
73016;BME280;61893;50.074;14.440;2022-08-23T06:24:59;98502.66;;;15.03;95.09
73016;BME280;61893;50.074;14.440;2022-08-23T06:27:27;98502.66;;;15.03;94.94
73016;BME280;61893;50.074;14.440;2022-08-23T06:29:53;98504.69;;;15.01;95.37
73016;BME280;61893;50.074;14.440;2022-08-23T06:32:25;98507.00;;;15.04;95.61
73016;BME280;61893;50.074;14.440;2022-08-23T06:35:10;98503.94;;;15.07;95.06
73016;BME280;61893;50.074;14.440;2022-08-23T06:37:36;98505.28;;;15.11;94.99
73016;BME280;61893;50.074;14.440;2022-08-23T06:40:04;98508.84;;;15.03;95.10
73016;BME280;61893;50.074;14.440;2022-08-23T06:42:35;98511.63;;;15.10;95.11
73016;BME280;61893;50.074;14.440;2022-08-23T06:45:04;98514.66;;;15.07;95.33
73016;BME280;61893;50.074;14.440;2022-08-23T06:47:43;98520.69;;;15.09;94.98
73016;BME280;61893;50.074;14.440;2022-08-23T06:50:09;98517.75;;;15.19;94.44
73016;BME280;61893;50.074;14.440;2022-08-23T06:52:35;98530.38;;;15.10;94.46
73016;BME280;61893;50.074;14.440;2022-08-23T06:55:01;98523.09;;;15.19;94.66
73016;BME280;61893;50.074;14.440;2022-08-23T06:57:30;98529.47;;;15.18;94.67
73016;BME280;61893;50.074;14.440;2022-08-23T07:00:06;98531.34;;;15.17;94.48
73016;BME280;61893;50.074;14.440;2022-08-23T07:02:45;98536.69;;;15.17;94.23
73016;BME280;61893;50.074;14.440;2022-08-23T07:05:11;98536.63;;;15.25;93.97
73016;BME280;61893;50.074;14.440;2022-08-23T07:07:39;98534.47;;;15.21;94.14
73016;BME280;61893;50.074;14.440;2022-08-23T07:10:08;98542.22;;;15.16;93.87
73016;BME280;61893;50.074;14.440;2022-08-23T07:12:38;98537.53;;;15.18;94.36
73016;BME280;61893;50.074;14.440;2022-08-23T07:15:08;98544.53;;;15.19;94.60
73016;BME280;61893;50.074;14.440;2022-08-23T07:17:39;98553.97;;;15.15;94.66
73016;BME280;61893;50.074;14.440;2022-08-23T07:20:11;98548.97;;;15.12;94.85
73016;BME280;61893;50.074;14.440;2022-08-23T07:22:45;98554.34;;;15.12;95.20
73016;BME280;61893;50.074;14.440;2022-08-23T07:25:11;98553.50;;;15.11;95.38
73016;BME280;61893;50.074;14.440;2022-08-23T07:27:38;98559.13;;;15.16;94.50
73016;BME280;61893;50.074;14.440;2022-08-23T07:30:05;98554.63;;;15.17;95.20
73016;BME280;61893;50.074;14.440;2022-08-23T07:32:31;98564.31;;;15.18;95.55
73016;BME280;61893;50.074;14.440;2022-08-23T07:35:00;98566.53;;;15.14;95.84
73016;BME280;61893;50.074;14.440;2022-08-23T07:37:26;98559.63;;;15.20;95.84
73016;BME280;61893;50.074;14.440;2022-08-23T07:40:08;98568.38;;;15.14;95.79
73016;BME280;61893;50.074;14.440;2022-08-23T07:43:09;98563.78;;;15.22;95.87
73016;BME280;61893;50.074;14.440;2022-08-23T07:45:40;98570.16;;;15.21;95.93
73016;BME280;61893;50.074;14.440;2022-08-23T07:48:10;98574.84;;;15.19;95.53
73016;BME280;61893;50.074;14.440;2022-08-23T07:50:53;98576.84;;;15.25;95.53
73016;BME280;61893;50.074;14.440;2022-08-23T07:53:36;98565.84;;;15.35;95.23
73016;BME280;61893;50.074;14.440;2022-08-23T07:56:21;98574.69;;;15.21;95.62
73016;BME280;61893;50.074;14.440;2022-08-23T07:59:46;98575.03;;;15.18;95.72
73016;BME280;61893;50.074;14.440;2022-08-23T08:02:36;98579.16;;;15.28;95.59
73016;BME280;61893;50.074;14.440;2022-08-23T08:06:03;98580.34;;;15.26;95.82
73016;BME280;61893;50.074;14.440;2022-08-23T08:09:41;98591.69;;;15.28;95.64
73016;BME280;61893;50.074;14.440;2022-08-23T08:13:36;98597.19;;;15.35;95.48
73016;BME280;61893;50.074;14.440;2022-08-23T08:16:49;98592.94;;;15.40;95.74
73016;BME280;61893;50.074;14.440;2022-08-23T08:19:30;98598.19;;;15.33;95.24
73016;BME280;61893;50.074;14.440;2022-08-23T08:21:58;98597.56;;;15.31;95.27
73016;BME280;61893;50.074;14.440;2022-08-23T08:24:24;98595.69;;;15.32;95.54
73016;BME280;61893;50.074;14.440;2022-08-23T08:26:50;98598.84;;;15.36;95.81
73016;BME280;61893;50.074;14.440;2022-08-23T08:29:16;98601.16;;;15.39;95.73
73016;BME280;61893;50.074;14.440;2022-08-23T08:31:45;98606.16;;;15.42;95.30
73016;BME280;61893;50.074;14.440;2022-08-23T08:34:33;98604.88;;;15.38;95.18
73016;BME280;61893;50.074;14.440;2022-08-23T08:37:22;98606.28;;;15.48;95.30
73016;BME280;61893;50.074;14.440;2022-08-23T08:41:12;98606.81;;;15.44;95.12
73016;BME280;61893;50.074;14.440;2022-08-23T08:44:28;98607.47;;;15.46;95.01
73016;BME280;61893;50.074;14.440;2022-08-23T08:47:55;98604.72;;;15.54;94.63
73016;BME280;61893;50.074;14.440;2022-08-23T08:50:39;98605.19;;;15.58;94.73
73016;BME280;61893;50.074;14.440;2022-08-23T08:53:14;98606.63;;;15.68;94.00
73016;BME280;61893;50.074;14.440;2022-08-23T08:55:46;98602.59;;;15.64;93.83
73016;BME280;61893;50.074;14.440;2022-08-23T08:58:19;98612.03;;;15.60;93.81
73016;BME280;61893;50.074;14.440;2022-08-23T09:00:48;98611.66;;;15.63;94.37
73016;BME280;61893;50.074;14.440;2022-08-23T09:03:19;98616.31;;;15.69;93.99
73016;BME280;61893;50.074;14.440;2022-08-23T09:05:55;98615.13;;;15.72;93.78
73016;BME280;61893;50.074;14.440;2022-08-23T09:09:07;98618.09;;;15.77;93.30
73016;BME280;61893;50.074;14.440;2022-08-23T09:17:02;98618.75;;;15.94;91.80
73016;BME280;61893;50.074;14.440;2022-08-23T09:20:03;98623.84;;;16.04;91.97
73016;BME280;61893;50.074;14.440;2022-08-23T09:22:50;98620.50;;;16.16;90.46
73016;BME280;61893;50.074;14.440;2022-08-23T09:25:22;98617.28;;;16.06;89.94
73016;BME280;61893;50.074;14.440;2022-08-23T09:27:51;98622.09;;;16.26;89.89
73016;BME280;61893;50.074;14.440;2022-08-23T09:30:19;98625.41;;;16.28;89.82
73016;BME280;61893;50.074;14.440;2022-08-23T09:32:46;98619.94;;;16.21;89.41
73016;BME280;61893;50.074;14.440;2022-08-23T09:35:24;98630.22;;;16.32;88.68
73016;BME280;61893;50.074;14.440;2022-08-23T09:38:05;98632.44;;;16.29;88.53
73016;BME280;61893;50.074;14.440;2022-08-23T09:40:44;98638.28;;;16.32;88.86
73016;BME280;61893;50.074;14.440;2022-08-23T09:47:16;98628.91;;;16.43;88.46
73016;BME280;61893;50.074;14.440;2022-08-23T09:49:45;98629.16;;;16.48;88.63
73016;BME280;61893;50.074;14.440;2022-08-23T09:52:33;98649.09;;;16.39;88.05
73016;BME280;61893;50.074;14.440;2022-08-23T09:55:09;98630.66;;;16.51;88.10
73016;BME280;61893;50.074;14.440;2022-08-23T09:57:49;98639.78;;;16.71;87.65
73016;BME280;61893;50.074;14.440;2022-08-23T10:00:24;98632.34;;;16.73;87.60
73016;BME280;61893;50.074;14.440;2022-08-23T10:03:28;98640.78;;;16.70;87.71
73016;BME280;61893;50.074;14.440;2022-08-23T10:05:59;98636.00;;;16.80;87.64
73016;BME280;61893;50.074;14.440;2022-08-23T10:08:32;98639.78;;;16.71;87.89
73016;BME280;61893;50.074;14.440;2022-08-23T10:11:23;98644.34;;;16.56;87.96
73016;BME280;61893;50.074;14.440;2022-08-23T10:13:53;98647.75;;;16.64;87.75
73016;BME280;61893;50.074;14.440;2022-08-23T10:19:25;98646.63;;;16.74;86.76
73016;BME280;61893;50.074;14.440;2022-08-23T10:22:54;98646.09;;;16.78;86.80
73016;BME280;61893;50.074;14.440;2022-08-23T10:26:00;98643.03;;;16.66;86.94
73016;BME280;61893;50.074;14.440;2022-08-23T10:34:39;98647.59;;;16.66;86.58
73016;BME280;61893;50.074;14.440;2022-08-23T10:37:48;98649.25;;;16.67;86.05
73016;BME280;61893;50.074;14.440;2022-08-23T10:49:36;98654.09;;;16.93;85.60
73016;BME280;61893;50.074;14.440;2022-08-23T10:52:39;98653.06;;;17.09;84.85
73016;BME280;61893;50.074;14.440;2022-08-23T10:55:37;98663.47;;;16.97;84.94
73016;BME280;61893;50.074;14.440;2022-08-23T10:58:34;98657.19;;;16.90;85.37
73016;BME280;61893;50.074;14.440;2022-08-23T11:01:07;98664.38;;;17.04;85.03
73016;BME280;61893;50.074;14.440;2022-08-23T11:14:45;98664.06;;;17.14;85.43
73016;BME280;61893;50.074;14.440;2022-08-23T11:18:53;98667.75;;;17.13;85.37
73016;BME280;61893;50.074;14.440;2022-08-23T11:22:29;98672.63;;;17.03;85.84
73016;BME280;61893;50.074;14.440;2022-08-23T11:37:55;98668.75;;;17.05;85.63
73016;BME280;61893;50.074;14.440;2022-08-23T11:40:59;98670.44;;;17.13;85.72
73016;BME280;61893;50.074;14.440;2022-08-23T11:43:37;98672.50;;;17.32;84.74
73016;BME280;61893;50.074;14.440;2022-08-23T11:46:57;98668.84;;;17.19;85.58
73016;BME280;61893;50.074;14.440;2022-08-23T11:52:18;98671.69;;;17.32;84.94
73016;BME280;61893;50.074;14.440;2022-08-23T12:07:05;98691.78;;;17.15;84.70
73016;BME280;61893;50.074;14.440;2022-08-23T12:12:25;98686.72;;;17.26;84.47
73016;BME280;61893;50.074;14.440;2022-08-23T12:24:39;98700.22;;;17.33;83.78
73016;BME280;61893;50.074;14.440;2022-08-23T12:31:49;98707.03;;;17.29;83.75
73016;BME280;61893;50.074;14.440;2022-08-23T12:38:11;98698.84;;;17.37;83.13
73016;BME280;61893;50.074;14.440;2022-08-23T12:42:19;98702.34;;;17.38;83.50
73016;BME280;61893;50.074;14.440;2022-08-23T12:45:26;98695.25;;;17.51;83.57
73016;BME280;61893;50.074;14.440;2022-08-23T12:49:24;98694.66;;;17.77;82.71
73016;BME280;61893;50.074;14.440;2022-08-23T12:52:36;98696.69;;;17.54;83.34
73016;BME280;61893;50.074;14.440;2022-08-23T13:03:39;98688.56;;;17.47;82.65
73016;BME280;61893;50.074;14.440;2022-08-23T13:06:57;98696.34;;;17.57;82.93
73016;BME280;61893;50.074;14.440;2022-08-23T13:10:08;98691.31;;;17.75;82.77
73016;BME280;61893;50.074;14.440;2022-08-23T13:12:48;98689.97;;;17.65;83.17
73016;BME280;61893;50.074;14.440;2022-08-23T13:15:45;98693.56;;;17.72;82.96
73016;BME280;61893;50.074;14.440;2022-08-23T13:18:31;98701.44;;;17.73;82.74
73016;BME280;61893;50.074;14.440;2022-08-23T13:21:26;98696.16;;;17.80;82.77
73016;BME280;61893;50.074;14.440;2022-08-23T13:23:55;98700.59;;;17.73;82.73
73016;BME280;61893;50.074;14.440;2022-08-23T13:26:36;98697.88;;;17.66;83.10
73016;BME280;61893;50.074;14.440;2022-08-23T13:29:23;98696.38;;;17.64;83.07
73016;BME280;61893;50.074;14.440;2022-08-23T13:32:03;98698.19;;;17.78;82.49
73016;BME280;61893;50.074;14.440;2022-08-23T13:34:42;98701.16;;;17.83;82.19
73016;BME280;61893;50.074;14.440;2022-08-23T13:37:26;98696.00;;;17.67;82.81
73016;BME280;61893;50.074;14.440;2022-08-23T13:39:58;98691.50;;;17.95;82.26
73016;BME280;61893;50.074;14.440;2022-08-23T13:42:49;98694.06;;;17.82;82.49
73016;BME280;61893;50.074;14.440;2022-08-23T13:45:44;98698.56;;;17.75;82.74
73016;BME280;61893;50.074;14.440;2022-08-23T13:51:18;98704.59;;;17.77;82.65
73016;BME280;61893;50.074;14.440;2022-08-23T13:53:46;98705.41;;;17.77;82.56
73016;BME280;61893;50.074;14.440;2022-08-23T13:56:32;98700.41;;;17.74;83.03
73016;BME280;61893;50.074;14.440;2022-08-23T14:01:54;98704.41;;;17.57;83.46
73016;BME280;61893;50.074;14.440;2022-08-23T14:04:29;98706.06;;;17.79;82.79
73016;BME280;61893;50.074;14.440;2022-08-23T14:07:11;98701.38;;;17.67;82.75
73016;BME280;61893;50.074;14.440;2022-08-23T14:09:38;98708.25;;;17.69;83.08
73016;BME280;61893;50.074;14.440;2022-08-23T14:12:12;98703.63;;;17.63;83.48
73016;BME280;61893;50.074;14.440;2022-08-23T14:14:59;98704.91;;;17.67;83.12
73016;BME280;61893;50.074;14.440;2022-08-23T14:17:28;98709.63;;;17.65;83.25
73016;BME280;61893;50.074;14.440;2022-08-23T14:19:58;98707.81;;;17.66;83.22
73016;BME280;61893;50.074;14.440;2022-08-23T14:22:47;98706.19;;;17.71;83.26
73016;BME280;61893;50.074;14.440;2022-08-23T14:25:46;98708.75;;;17.79;83.15
73016;BME280;61893;50.074;14.440;2022-08-23T14:28:28;98713.22;;;17.72;83.67
73016;BME280;61893;50.074;14.440;2022-08-23T14:31:01;98712.66;;;17.77;83.36
73016;BME280;61893;50.074;14.440;2022-08-23T14:33:36;98707.63;;;17.74;83.47
73016;BME280;61893;50.074;14.440;2022-08-23T14:36:06;98712.34;;;17.87;82.82
73016;BME280;61893;50.074;14.440;2022-08-23T14:38:41;98706.19;;;17.71;83.52
73016;BME280;61893;50.074;14.440;2022-08-23T14:41:22;98712.66;;;17.77;83.85
73016;BME280;61893;50.074;14.440;2022-08-23T14:43:52;98701.16;;;17.83;83.40
73016;BME280;61893;50.074;14.440;2022-08-23T14:46:30;98717.69;;;17.80;83.72
73016;BME280;61893;50.074;14.440;2022-08-23T14:48:56;98719.34;;;17.81;83.86
73016;BME280;61893;50.074;14.440;2022-08-23T14:51:32;98711.81;;;17.76;84.38
73016;BME280;61893;50.074;14.440;2022-08-23T14:54:05;98715.16;;;17.78;84.20
73016;BME280;61893;50.074;14.440;2022-08-23T14:56:33;98711.66;;;17.78;84.36
73016;BME280;61893;50.074;14.440;2022-08-23T14:59:15;98713.03;;;17.74;84.47
73016;BME280;61893;50.074;14.440;2022-08-23T15:01:46;98716.00;;;17.79;84.32
73016;BME280;61893;50.074;14.440;2022-08-23T15:04:18;98715.34;;;17.77;84.17
73016;BME280;61893;50.074;14.440;2022-08-23T15:06:50;98714.72;;;17.75;84.55
73016;BME280;61893;50.074;14.440;2022-08-23T15:09:19;98714.00;;;17.66;85.32
73016;BME280;61893;50.074;14.440;2022-08-23T15:11:45;98712.97;;;17.67;85.53
73016;BME280;61893;50.074;14.440;2022-08-23T15:14:26;98716.31;;;17.69;85.23
73016;BME280;61893;50.074;14.440;2022-08-23T15:16:56;98715.88;;;17.66;84.71
73016;BME280;61893;50.074;14.440;2022-08-23T15:19:33;98713.88;;;17.74;85.01
73016;BME280;61893;50.074;14.440;2022-08-23T15:22:33;98718.31;;;17.82;84.09
73016;BME280;61893;50.074;14.440;2022-08-23T15:25:07;98720.88;;;17.69;84.93
73016;BME280;61893;50.074;14.440;2022-08-23T15:27:33;98716.50;;;17.68;85.00
73016;BME280;61893;50.074;14.440;2022-08-23T15:30:17;98714.72;;;17.75;84.58
73016;BME280;61893;50.074;14.440;2022-08-23T15:32:43;98718.78;;;17.71;84.95